createdAt,value
2022-08-20T00:02:15.514Z,100
2022-08-20T00:07:16.293Z,100
2022-08-20T00:12:16.997Z,100
2022-08-20T00:17:17.783Z,100
2022-08-20T00:22:18.582Z,100
2022-08-20T00:27:19.527Z,100
2022-08-20T00:32:20.483Z,100
2022-08-20T00:37:21.408Z,100
2022-08-20T00:42:22.358Z,100
2022-08-20T00:47:23.317Z,100
2022-08-20T00:52:24.040Z,100
2022-08-20T00:57:25.006Z,100
2022-08-20T01:02:25.968Z,100
2022-08-20T01:07:26.917Z,100
2022-08-20T01:12:27.853Z,100
2022-08-20T01:17:28.813Z,100
2022-08-20T01:22:29.772Z,100
2022-08-20T01:27:30.469Z,100
2022-08-20T01:32:31.739Z,100
2022-08-20T01:37:32.720Z,100
2022-08-20T01:42:33.664Z,100
2022-08-20T01:47:38.613Z,100
2022-08-20T01:52:39.626Z,100
2022-08-20T01:57:40.302Z,100
2022-08-20T02:02:41.487Z,100
2022-08-20T02:07:42.173Z,100
2022-08-20T02:12:43.094Z,100
2022-08-20T02:17:44.063Z,100
2022-08-20T02:22:50.016Z,100
2022-08-20T02:27:51.105Z,100
2022-08-20T02:32:52.005Z,100
2022-08-20T02:37:57.277Z,100
2022-08-20T02:42:58.466Z,100
2022-08-20T02:47:59.506Z,100
2022-08-20T02:53:00.485Z,100
2022-08-20T02:58:01.186Z,100
2022-08-20T03:03:01.992Z,100
2022-08-20T03:08:02.916Z,100
2022-08-20T03:13:03.867Z,100
2022-08-20T03:18:04.829Z,100
2022-08-20T03:23:05.787Z,100
2022-08-20T03:28:06.727Z,100
2022-08-20T03:33:07.631Z,100
2022-08-20T03:38:08.588Z,100
2022-08-20T03:43:09.537Z,100
2022-08-20T03:48:10.498Z,100
2022-08-20T03:53:12.305Z,100
2022-08-20T03:58:15.803Z,100
2022-08-20T04:03:16.707Z,100
2022-08-20T04:08:17.646Z,100
2022-08-20T04:13:18.380Z,100
2022-08-20T04:18:19.325Z,100
2022-08-20T04:23:20.267Z,100
2022-08-20T04:28:21.190Z,100
2022-08-20T04:33:24.369Z,100
2022-08-20T04:38:48.123Z,100
2022-08-20T04:43:51.050Z,100
2022-08-20T04:48:51.987Z,100
2022-08-20T04:53:53.817Z,100
2022-08-20T04:58:55.039Z,100
2022-08-20T05:03:56.008Z,100
2022-08-20T05:08:58.245Z,100
2022-08-20T05:13:59.159Z,100
2022-08-20T05:19:00.106Z,100
2022-08-20T05:24:01.027Z,100
2022-08-20T05:29:01.965Z,100
2022-08-20T05:34:02.958Z,100
2022-08-20T05:39:03.946Z,100
2022-08-20T05:44:04.987Z,100
2022-08-20T05:49:05.939Z,100
2022-08-20T05:54:06.885Z,100
2022-08-20T05:59:07.958Z,100
2022-08-20T06:04:08.897Z,100
2022-08-20T06:09:09.583Z,100
2022-08-20T06:14:10.248Z,100
2022-08-20T06:19:11.283Z,100
2022-08-20T06:24:12.363Z,100
2022-08-20T06:29:13.212Z,100
2022-08-20T06:34:14.137Z,100
2022-08-20T06:39:15.067Z,100
2022-08-20T06:44:16.030Z,100
2022-08-20T06:49:16.991Z,100
2022-08-20T06:54:17.934Z,100
2022-08-20T06:59:18.923Z,100
2022-08-20T07:04:19.776Z,100
2022-08-20T07:09:20.706Z,100
2022-08-20T07:14:21.621Z,100
2022-08-20T07:19:22.568Z,100
2022-08-20T07:24:23.501Z,100
2022-08-20T07:29:24.441Z,100
2022-08-20T07:34:25.388Z,100
2022-08-20T07:39:27.750Z,100
2022-08-20T07:44:31.312Z,100
2022-08-20T07:49:32.372Z,100
2022-08-20T07:54:33.324Z,100
2022-08-20T07:59:34.283Z,100
2022-08-20T08:04:35.284Z,100
2022-08-20T08:09:36.014Z,100
2022-08-20T08:14:36.861Z,100
2022-08-20T08:19:37.815Z,100
2022-08-20T08:24:38.772Z,100
2022-08-20T08:29:40.914Z,100
2022-08-20T08:34:42.047Z,100
2022-08-20T08:39:44.794Z,100
2022-08-20T08:44:45.936Z,100
2022-08-20T08:49:50.709Z,100
2022-08-20T08:54:51.626Z,100
2022-08-20T09:00:03.580Z,100
2022-08-20T09:05:06.083Z,100
2022-08-20T09:10:07.054Z,100
2022-08-20T09:15:08.023Z,100
2022-08-20T09:20:08.679Z,100
2022-08-20T09:25:09.419Z,100
2022-08-20T09:30:10.386Z,100
2022-08-20T09:35:11.469Z,100
2022-08-20T09:40:12.563Z,100
2022-08-20T09:45:13.515Z,100
2022-08-20T09:50:19.481Z,100
2022-08-20T09:55:25.114Z,100
2022-08-20T10:00:26.063Z,100
2022-08-20T10:05:27.024Z,100
2022-08-20T10:10:27.864Z,100
2022-08-20T10:15:28.801Z,100
2022-08-20T10:20:35.255Z,100
2022-08-20T10:25:36.609Z,100
2022-08-20T10:30:37.369Z,100
2022-08-20T10:35:39.453Z,100
2022-08-20T10:40:40.300Z,100
2022-08-20T10:45:41.207Z,100
2022-08-20T10:50:42.149Z,100
2022-08-20T10:55:43.121Z,100
2022-08-20T11:00:43.841Z,100
2022-08-20T11:05:44.797Z,100
2022-08-20T11:10:45.910Z,100
2022-08-20T11:15:46.897Z,100
2022-08-20T11:20:47.847Z,100
2022-08-20T11:25:48.832Z,100
2022-08-20T11:30:50.205Z,100
2022-08-20T11:35:51.120Z,100
2022-08-20T11:40:52.073Z,100
2022-08-20T11:45:53.025Z,100
2022-08-20T11:50:53.758Z,100
2022-08-20T11:55:54.498Z,100
2022-08-20T12:00:56.501Z,100
2022-08-20T12:05:57.464Z,100
2022-08-20T12:10:58.233Z,100
2022-08-20T12:15:58.975Z,100
2022-08-20T12:20:59.922Z,100
2022-08-20T12:26:00.831Z,100
2022-08-20T12:31:01.745Z,100
2022-08-20T12:36:02.885Z,100
2022-08-20T12:41:03.578Z,100
2022-08-20T12:46:04.563Z,100
2022-08-20T12:51:05.508Z,100
2022-08-20T12:56:06.437Z,100
2022-08-20T13:01:07.422Z,100
2022-08-20T13:06:08.385Z,100
2022-08-20T13:11:09.387Z,100
2022-08-20T13:16:10.315Z,100
2022-08-20T13:21:11.004Z,100
2022-08-20T13:26:11.733Z,100
2022-08-20T13:31:12.690Z,100
2022-08-20T13:36:13.640Z,100
2022-08-20T13:41:14.595Z,100
2022-08-20T13:46:15.559Z,100
2022-08-20T13:51:18.967Z,100
2022-08-20T13:56:19.976Z,98.69712
2022-08-20T14:01:20.621Z,99.78334
2022-08-20T14:06:21.522Z,98.04121
2022-08-20T14:11:22.496Z,100
2022-08-20T14:16:27.572Z,98.63646
2022-08-20T14:21:28.792Z,100
2022-08-20T14:26:29.441Z,100
2022-08-20T14:31:30.362Z,95.72692
2022-08-20T14:36:31.282Z,92.39086
2022-08-20T14:41:32.232Z,93.79883
2022-08-20T14:46:33.232Z,94.83354
2022-08-20T14:51:33.955Z,92.35946
2022-08-20T14:56:34.900Z,88.00147
2022-08-20T15:01:35.931Z,91.05111
2022-08-20T15:06:41.913Z,86.78344
2022-08-20T15:11:42.641Z,86.53314
2022-08-20T15:16:43.323Z,89.26873
2022-08-20T15:21:45.400Z,88.89416
2022-08-20T15:26:46.756Z,79.99336
2022-08-20T15:31:47.704Z,78.77441
2022-08-20T15:36:48.914Z,81.68216
2022-08-20T15:41:49.635Z,84.32838
2022-08-20T15:46:50.974Z,78.05288
2022-08-20T15:51:52.036Z,77.25996
2022-08-20T15:56:52.989Z,76.16097
2022-08-20T16:01:53.992Z,77.626
2022-08-20T16:06:55.010Z,78.51244
2022-08-20T16:11:55.935Z,76.96128
2022-08-20T16:17:01.239Z,73.78802
2022-08-20T16:22:02.757Z,75.32667
2022-08-20T16:27:03.697Z,78.33078
2022-08-20T16:32:04.929Z,78.81882
2022-08-20T16:37:06.059Z,79.69475
2022-08-20T16:42:07.012Z,80.30748
2022-08-20T16:47:13.949Z,82.19509
2022-08-20T16:52:15.695Z,80.02231
2022-08-20T16:57:17.460Z,79.65505
2022-08-20T17:02:18.553Z,84.58355
2022-08-20T17:07:19.573Z,84.01613
2022-08-20T17:12:21.856Z,83.608
2022-08-20T17:17:22.815Z,84.0595
2022-08-20T17:22:23.942Z,86.71565
2022-08-20T17:27:24.826Z,86.29236
2022-08-20T17:32:25.775Z,84.73937
2022-08-20T17:37:26.714Z,87.47091
2022-08-20T17:42:28.044Z,90.85534
2022-08-20T17:47:28.751Z,90.35896
2022-08-20T17:52:29.683Z,91.15604
2022-08-20T17:57:30.625Z,91.18212
2022-08-20T18:02:31.426Z,95.21276
2022-08-20T18:07:32.403Z,97.01212
2022-08-20T18:12:34.064Z,98.23922
2022-08-20T18:17:35.607Z,100
2022-08-20T18:22:36.612Z,100
2022-08-20T18:27:37.564Z,100
2022-08-20T18:32:38.429Z,100
2022-08-20T18:37:39.396Z,100
2022-08-20T18:42:40.224Z,100
2022-08-20T18:47:41.146Z,100
2022-08-20T18:52:42.041Z,100
2022-08-20T18:57:43.396Z,100
2022-08-20T19:02:44.386Z,100
2022-08-20T19:07:48.730Z,100
2022-08-20T19:12:50.569Z,100
2022-08-20T19:17:51.347Z,100
2022-08-20T19:22:52.339Z,100
2022-08-20T19:27:53.280Z,100
2022-08-20T19:32:54.242Z,100
2022-08-20T19:37:55.216Z,100
2022-08-20T19:42:55.877Z,100
2022-08-20T19:47:56.886Z,100
2022-08-20T19:52:58.132Z,100
2022-08-20T19:57:59.289Z,100
2022-08-20T20:03:00.234Z,100
2022-08-20T20:08:01.165Z,100
2022-08-20T20:13:02.106Z,100
2022-08-20T20:18:03.038Z,100
2022-08-20T20:23:06.871Z,100
2022-08-20T20:28:08.012Z,100
2022-08-20T20:33:09.035Z,100
2022-08-20T20:38:09.740Z,100
2022-08-20T20:43:10.449Z,100
2022-08-20T20:48:11.139Z,100
2022-08-20T20:53:12.029Z,100
2022-08-20T20:58:12.760Z,100
2022-08-20T21:03:13.634Z,100
2022-08-20T21:08:14.660Z,100
2022-08-20T21:13:15.297Z,100
2022-08-20T21:18:15.946Z,100
2022-08-20T21:23:16.903Z,100
2022-08-20T21:28:17.839Z,100
2022-08-20T21:33:18.789Z,100
2022-08-20T21:38:19.789Z,100
2022-08-20T21:43:20.491Z,100
2022-08-20T21:48:21.418Z,100
2022-08-20T21:53:22.382Z,100
2022-08-20T21:58:23.318Z,100
2022-08-20T22:03:24.260Z,100
2022-08-20T22:08:26.071Z,100
2022-08-20T22:13:29.224Z,100
2022-08-20T22:18:30.174Z,100
2022-08-20T22:23:31.089Z,100
2022-08-20T22:28:31.783Z,100
2022-08-20T22:33:32.445Z,100
2022-08-20T22:38:33.391Z,100
2022-08-20T22:43:34.349Z,100
2022-08-20T22:48:35.067Z,100
2022-08-20T22:53:35.855Z,100
2022-08-20T22:58:36.589Z,100
2022-08-20T23:03:40.074Z,100
2022-08-20T23:08:41.378Z,100
2022-08-20T23:13:42.529Z,100
2022-08-20T23:18:43.474Z,100
2022-08-20T23:23:44.481Z,100
2022-08-20T23:28:45.261Z,100
2022-08-20T23:33:46.242Z,100
2022-08-20T23:38:47.178Z,100
2022-08-20T23:43:48.141Z,100
2022-08-20T23:48:48.838Z,100
2022-08-20T23:53:49.451Z,100
2022-08-20T23:58:50.180Z,100
